Allamuchy Township, New Jersey
Current Conditions -  °F | °C
As of 7:53 AM on Monday 24 Nov 2014 (Local Time) from KSMQ Reporting Station
Overcast Overcast  
Wind Chill: 65°   Ceiling: 2100
Heat Index: 65°   Visibility: 10mi
Dew Point: 61°   Wind: 12mph
Humidity: 87%   Direction: 190°S
Pressure: 29.65"   Gusts: 21mph
Location:  40.8661°N, 74.8361°W
Report Text: KSMQ 241253Z AUTO 19010G18KT 10SM BKN021 OVC026 18/16 A2965 RMK AO2 SLP040 T01830161
Loading
Personal Weather Stations






























Interactive Weather Map New forecast layout! Learn more

10-Day Weather Forecast

Advertisements
Track Severe Weather on mobile